Time;durP1;ratioP1;P1;durP2;ratioP2;P2;SDS_P1;SDS_P2;PMS_P1;PMS_P2;Temp;Humidity;BMP_temperature;BMP_pressure;BME280_temperature;BME280_humidity;BME280_pressure;Samples;Min_cycle;Max_cycle;Signal;HPM_P1;HPM_P2
2022/02/09 00:02:02;;;;;;;1999.90;999.90;;;;;;;7.09;100.00;164288.00;5025517;28;20434;-68
2022/02/09 00:04:38;;;;;;;1999.90;999.90;;;;;;;6.90;100.00;164235.78;5017110;28;20088;-68
2022/02/09 00:07:12;;;;;;;1999.90;999.90;;;;;;;6.57;100.00;164149.22;5018344;28;20515;-67
2022/02/09 00:09:43;;;;;;;1999.90;999.90;;;;;;;6.51;100.00;164132.75;5025562;28;20092;-68
2022/02/09 00:12:18;;;;;;;1999.90;999.90;;;;;;;6.03;100.00;164003.66;5029106;28;20084;-68
2022/02/09 00:20:14;;;;;;;1999.90;999.90;;;;;;;6.24;100.00;164061.34;5018520;28;20140;-68
2022/02/09 00:31:10;;;;;;;1999.90;999.90;;;;;;;6.08;100.00;164017.41;5028583;28;20482;-67
2022/02/09 00:36:27;;;;;;;1999.90;999.90;;;;;;;6.08;100.00;164017.41;5021576;28;20088;-67
2022/02/09 00:44:24;;;;;;;1999.90;999.90;;;;;;;6.99;100.00;164260.50;5025574;28;20136;-67
2022/02/09 01:11:47;;;;;;;1999.90;999.90;;;;;;;6.56;100.00;164146.47;5023682;28;20128;-67
2022/02/09 01:39:10;;;;;;;1999.90;999.90;;;;;;;6.62;100.00;164162.94;5015849;28;20128;-67
2022/02/09 01:51:12;;;;;;;1999.90;999.90;;;;;;;6.50;100.00;164131.34;5019000;28;20545;-67
2022/02/09 01:55:38;;;;;;;1999.90;999.90;;;;;;;7.58;100.00;164418.56;5018208;28;20049;-67
2022/02/09 01:58:04;;;;;;;1999.90;999.90;;;;;;;7.78;100.00;164470.78;5015277;28;20046;-68
2022/02/09 02:00:31;;;;;;;1999.90;999.90;;;;;;;7.51;100.00;164400.66;5023437;28;20518;-68
2022/02/09 02:02:58;;;;;;;1999.90;999.90;;;;;;;7.30;100.00;164342.97;5020809;28;20176;-68
2022/02/09 02:05:24;;;;;;;1999.90;999.90;;;;;;;7.40;100.00;164371.81;5018814;28;20077;-68
2022/02/09 02:07:57;;;;;;;1999.90;999.90;;;;;;;7.34;100.00;164355.31;5016775;28;20137;-68
2022/02/09 02:10:34;;;;;;;1999.90;999.90;;;;;;;7.85;100.00;164490.03;5022654;28;20076;-68
2022/02/09 02:18:18;;;;;;;1999.90;999.90;;;;;;;8.16;100.00;164572.50;5003592;28;20492;-68
2022/02/09 02:23:43;;;;;;;1999.90;999.90;;;;;;;8.14;100.00;164568.38;5017521;28;20509;-68
2022/02/09 02:32:15;;;;;;;1999.90;999.90;;;;;;;7.93;100.00;164512.00;5019823;28;20057;-67
2022/02/09 02:58:52;;;;;;;1999.90;999.90;;;;;;;7.89;100.00;164501.00;5022185;28;20394;-67
2022/02/09 03:12:07;;;;;;;1999.90;999.90;;;;;;;7.26;100.00;164333.31;4991012;28;20733;-67
2022/02/09 03:17:18;;;;;;;1999.90;999.90;;;;;;;7.73;100.00;164459.78;5021615;28;20152;-67
2022/02/09 03:19:50;;;;;;;1999.90;999.90;;;;;;;7.94;100.00;164516.13;5017841;28;20083;-67
2022/02/09 03:22:28;;;;;;;1999.90;999.90;;;;;;;8.10;100.00;164558.75;5015927;28;20169;-67
2022/02/09 03:27:48;;;;;;;1999.90;999.90;;;;;;;8.10;100.00;164558.75;5024967;28;20089;-67
2022/02/09 03:44:29;;;;;;;1999.90;999.90;;;;;;;7.03;100.00;164271.50;5025506;28;20088;-67
2022/02/09 03:47:15;;;;;;;1999.90;999.90;;;;;;;7.17;100.00;164309.94;5017908;28;20388;-67
2022/02/09 03:57:27;;;;;;;1999.90;999.90;;;;;;;7.83;100.00;164484.50;5021720;28;20085;-66
2022/02/09 03:59:56;;;;;;;1999.90;999.90;;;;;;;7.75;100.00;164463.88;5026407;28;20132;-67
2022/02/09 04:02:23;;;;;;;1999.90;999.90;;;;;;;7.84;100.00;164487.25;5020966;28;20450;-67
2022/02/09 04:04:55;;;;;;;1999.90;999.90;;;;;;;7.63;100.00;164432.28;5021777;28;20128;-67
2022/02/09 04:07:22;;;;;;;1999.90;999.90;;;;;;;7.28;100.00;164337.44;5025533;28;20077;-67
2022/02/09 04:09:52;;;;;;;1999.90;999.90;;;;;;;7.21;100.00;164319.59;5013311;28;20140;-67
2022/02/09 04:14:58;;;;;;;1999.90;999.90;;;;;;;7.24;100.00;164327.84;5018855;28;20406;-67
2022/02/09 04:17:41;;;;;;;1999.90;999.90;;;;;;;6.90;100.00;164237.16;5023112;28;20100;-66
2022/02/09 04:20:26;;;;;;;1999.90;999.90;;;;;;;6.78;100.00;164204.19;5017947;28;20085;-67
2022/02/09 04:39:00;;;;;;;1999.90;999.90;;;;;;;7.74;100.00;164462.53;5022548;28;20536;-66
2022/02/09 04:45:13;;;;;;;1999.90;999.90;;;;;;;7.50;100.00;164396.53;5025064;28;20439;-68
2022/02/09 04:47:25;;;;;;;1999.90;999.90;;;;;;;7.35;100.00;164358.09;5018172;28;20127;-65
2022/02/09 04:55:05;;;;;;;1999.90;999.90;;;;;;;7.61;100.00;164426.78;5018519;28;20140;-66
2022/02/09 04:57:47;;;;;;;1999.90;999.90;;;;;;;7.67;100.00;164441.91;5023441;28;20136;-67
2022/02/09 05:00:29;;;;;;;;;;;;;;;7.86;100.00;164494.16;5016474;28;20081;-67
2022/02/09 05:03:38;;;;;;;1999.90;999.90;;;;;;;8.00;100.00;164531.25;5022468;28;19923;-67
2022/02/09 05:22:46;;;;;;;1999.90;999.90;;;;;;;6.66;100.00;164172.59;5022673;28;20236;-67
2022/02/09 05:28:24;;;;;;;1999.90;999.90;;;;;;;6.53;100.00;164138.22;5019574;28;20103;-67
2022/02/09 05:30:53;;;;;;;1999.90;999.90;;;;;;;6.63;100.00;164164.34;5019578;28;20159;-67
2022/02/09 05:33:21;;;;;;;1999.90;999.90;;;;;;;6.80;100.00;164211.06;5021171;28;20124;-67
2022/02/09 05:35:49;;;;;;;1999.90;999.90;;;;;;;6.56;100.00;164146.47;5023838;28;20737;-67
2022/02/09 05:38:16;;;;;;;1999.90;999.90;;;;;;;6.73;100.00;164190.41;5021035;28;20069;-67
2022/02/09 05:40:44;;;;;;;1999.90;999.90;;;;;;;6.68;100.00;164178.06;5017269;28;20483;-67
2022/02/09 05:43:12;;;;;;;1999.90;999.90;;;;;;;6.74;100.00;164194.53;5014039;28;20128;-67
2022/02/09 05:51:06;;;;;;;1999.90;999.90;;;;;;;6.76;100.00;164198.66;5022450;28;20138;-67
2022/02/09 05:54:07;;;;;;;1999.90;999.90;;;;;;;6.53;100.00;164138.22;5018203;28;20097;-67
2022/02/09 05:56:41;;;;;;;1999.90;999.90;;;;;;;6.68;100.00;164179.47;5021416;28;20139;-67
2022/02/09 06:01:36;;;;;;;1999.90;999.90;;;;;;;6.56;100.00;164146.47;5017789;28;20132;-67
2022/02/09 06:04:03;;;;;;;1999.90;999.90;;;;;;;6.67;100.00;164175.34;5027754;28;20122;-67
2022/02/09 06:06:29;;;;;;;1999.90;999.90;;;;;;;6.86;100.00;164226.13;5026562;28;20137;-67
2022/02/09 06:08:56;;;;;;;1999.90;999.90;;;;;;;7.00;100.00;164264.63;5023697;28;20085;-67
2022/02/09 06:14:12;;;;;;;1999.90;999.90;;;;;;;7.21;100.00;164320.94;5012647;28;20092;-67
2022/02/09 06:22:04;;;;;;;1999.90;999.90;;;;;;;7.16;100.00;164307.22;5022757;28;20096;-67
2022/02/09 06:24:31;;;;;;;1999.90;999.90;;;;;;;7.23;100.00;164325.06;5013663;28;20085;-67
2022/02/09 06:26:58;;;;;;;1999.90;999.90;;;;;;;7.09;100.00;164286.63;5012465;28;20092;-68
2022/02/09 06:29:25;;;;;;;1999.90;999.90;;;;;;;6.71;100.00;164186.31;5013927;28;20942;-67
2022/02/09 06:31:52;;;;;;;1999.90;999.90;;;;;;;6.95;100.00;164250.91;5014063;28;20085;-67
2022/02/09 06:34:20;;;;;;;1999.90;999.90;;;;;;;6.80;100.00;164209.66;5015911;28;20139;-67
2022/02/09 06:36:58;;;;;;;1999.90;999.90;;;;;;;6.98;100.00;164257.75;5022755;28;20056;-67
2022/02/09 06:39:26;;;;;;;1999.90;999.90;;;;;;;7.23;100.00;164325.06;5022246;28;20087;-67
2022/02/09 06:41:52;;;;;;;1999.90;999.90;;;;;;;7.40;100.00;164370.44;5010344;28;20340;-68
2022/02/09 06:44:20;;;;;;;1999.90;999.90;;;;;;;7.45;100.00;164384.19;5013832;28;20080;-67
2022/02/09 06:46:47;;;;;;;1999.90;999.90;;;;;;;7.33;100.00;164351.19;5026678;28;20053;-67
2022/02/09 06:49:15;;;;;;;1999.90;999.90;;;;;;;7.19;100.00;164315.47;5015320;28;20096;-67
2022/02/09 06:51:45;;;;;;;1999.90;999.90;;;;;;;7.13;100.00;164297.59;5023510;28;20132;-67
2022/02/09 06:54:22;;;;;;;1999.90;999.90;;;;;;;6.84;100.00;164220.66;5020983;28;20081;-67
2022/02/09 06:59:28;;;;;;;1999.90;999.90;;;;;;;6.78;100.00;164204.19;5021952;28;20085;-67
2022/02/09 07:02:04;;;;;;;1999.90;999.90;;;;;;;6.87;100.00;164228.91;5019037;28;20253;-67
2022/02/09 07:04:32;;;;;;;1999.90;999.90;;;;;;;6.61;100.00;164158.81;5018639;28;20130;-67
2022/02/09 07:06:58;;;;;;;1999.90;999.90;;;;;;;6.60;100.00;164157.47;5022010;28;20080;-67
2022/02/09 07:09:27;;;;;;;1999.90;999.90;;;;;;;6.53;100.00;164138.22;5028567;28;20078;-67
2022/02/09 07:11:55;;;;;;;1999.90;999.90;;;;;;;6.36;100.00;164092.94;5029051;28;20091;-67
2022/02/09 07:14:25;;;;;;;1999.90;999.90;;;;;;;6.43;100.00;164112.16;5022997;28;20091;-67
2022/02/09 07:16:52;;;;;;;1999.90;999.90;;;;;;;6.38;100.00;164097.03;5016937;28;20418;-67
2022/02/09 07:19:20;;;;;;;1999.90;999.90;;;;;;;6.26;100.00;164066.81;5018621;28;20139;-67
2022/02/09 07:21:47;;;;;;;1999.90;999.90;;;;;;;6.01;100.00;163999.53;5013516;28;20069;-67
2022/02/09 07:24:17;;;;;;;1999.90;999.90;;;;;;;6.30;100.00;164077.81;5030174;28;20256;-67
2022/02/09 07:29:16;;;;;;;1999.90;999.90;;;;;;;6.62;100.00;164162.94;5024662;28;20053;-67
2022/02/09 07:31:44;;;;;;;1999.90;999.90;;;;;;;6.38;100.00;164097.03;5021709;28;20093;-67
2022/02/09 07:34:11;;;;;;;1999.90;999.90;;;;;;;6.26;100.00;164066.81;5021502;28;20156;-67
2022/02/09 07:36:40;;;;;;;1999.90;999.90;;;;;;;6.38;100.00;164097.03;5024439;28;20145;-67
2022/02/09 07:39:09;;;;;;;1999.90;999.90;;;;;;;6.30;100.00;164077.81;5026135;28;20431;-67
2022/02/09 07:41:39;;;;;;;1999.90;999.90;;;;;;;6.20;100.00;164049.00;5022468;28;20125;-67
2022/02/09 07:46:55;;;;;;;1999.90;999.90;;;;;;;6.17;100.00;164043.47;5020578;28;20041;-67
2022/02/09 07:49:25;;;;;;;1999.90;999.90;;;;;;;6.58;100.00;164152.00;5015867;28;20073;-67
2022/02/09 07:54:20;;;;;;;1999.90;999.90;;;;;;;6.19;100.00;164047.59;5012927;28;20054;-67
2022/02/09 07:56:48;;;;;;;1999.90;999.90;;;;;;;6.38;100.00;164098.41;5019626;28;20335;-68
2022/02/09 07:59:18;;;;;;;1999.90;999.90;;;;;;;6.51;100.00;164134.09;5019515;28;20085;-68
2022/02/09 08:01:45;;;;;;;1999.90;999.90;;;;;;;6.72;100.00;164187.72;5022697;28;20431;-68
2022/02/09 08:04:13;;;;;;;1999.90;999.90;;;;;;;6.69;100.00;164182.19;5025314;28;20091;-67
2022/02/09 08:06:40;;;;;;;1999.90;999.90;;;;;;;6.69;100.00;164180.81;5018824;28;20092;-68
2022/02/09 08:09:18;;;;;;;1999.90;999.90;;;;;;;6.64;100.00;164167.06;5017940;28;20409;-67
2022/02/09 08:11:55;;;;;;;1999.90;999.90;;;;;;;6.51;100.00;164132.75;5019631;28;20173;-67
2022/02/09 08:28:47;;;;;;;1999.90;999.90;;;;;;;7.14;100.00;164300.34;5021662;28;20430;-67
2022/02/09 08:33:41;;;;;;;1999.90;999.90;;;;;;;6.92;100.00;164242.63;5023855;28;20046;-68
2022/02/09 08:36:07;;;;;;;1999.90;999.90;;;;;;;7.08;100.00;164285.22;5013139;28;20132;-67
2022/02/09 08:38:35;;;;;;;1999.90;999.90;;;;;;;6.76;100.00;164198.66;5025415;28;20076;-67
2022/02/09 08:41:02;;;;;;;1999.90;999.90;;;;;;;6.89;100.00;164234.38;5025537;28;20140;-67
2022/02/09 08:43:29;;;;;;;1999.90;999.90;;;;;;;6.86;100.00;164226.13;5024154;28;20148;-67
2022/02/09 08:45:55;;;;;;;1999.90;999.90;;;;;;;6.83;100.00;164219.31;5026166;28;20484;-67
2022/02/09 08:48:22;;;;;;;1999.90;999.90;;;;;;;6.94;100.00;164246.78;5020615;28;20160;-67
2022/02/09 08:50:51;;;;;;;1999.90;999.90;;;;;;;7.10;100.00;164289.34;5016170;28;20081;-67
2022/02/09 08:53:19;;;;;;;1999.90;999.90;;;;;;;7.44;100.00;164380.03;5020127;28;20081;-68
2022/02/09 08:55:47;;;;;;;1999.90;999.90;;;;;;;7.01;100.00;164267.38;5017397;28;20091;-68
2022/02/09 08:58:15;;;;;;;1999.90;999.90;;;;;;;7.10;100.00;164290.75;5019534;28;20054;-67
2022/02/09 09:00:42;;;;;;;1999.90;999.90;;;;;;;6.98;100.00;164259.16;5018356;28;20465;-68
2022/02/09 09:03:20;;;;;;;1999.90;999.90;;;;;;;7.22;100.00;164322.34;5025903;28;20502;-68
2022/02/09 09:05:49;;;;;;;1999.90;999.90;;;;;;;7.28;100.00;164338.84;5020770;28;20280;-67
2022/02/09 09:17:26;;;;;;;1999.90;999.90;;;;;;;8.11;100.00;164561.53;4998266;28;20085;-67
2022/02/09 09:31:18;;;;;;;1999.90;999.90;;;;;;;8.50;100.00;164663.31;5021143;28;20484;-68
2022/02/09 09:58:27;;;;;;;1999.90;999.90;;;;;;;10.49;100.00;165195.97;5021171;28;20054;-67
2022/02/09 10:34:11;;;;;;;1999.90;999.90;;;;;;;9.77;99.09;165004.53;5012830;28;20048;-66
2022/02/09 10:36:45;;;;;;;1999.90;999.90;;;;;;;10.16;99.60;165109.16;5024087;28;20120;-66
2022/02/09 10:39:13;;;;;;;1999.90;999.90;;;;;;;10.71;96.87;165256.56;5015751;28;20093;-67
2022/02/09 10:41:59;;;;;;;1999.90;999.90;;;;;;;10.19;97.16;165117.41;5023674;28;20071;-67
2022/02/09 10:44:44;;;;;;;1999.90;999.90;;;;;;;10.45;97.79;165186.34;5022024;28;20508;-66
2022/02/09 10:47:26;;;;;;;1999.90;999.90;;;;;;;11.24;95.96;165397.09;5016062;28;20064;-66
2022/02/09 10:50:29;;;;;;;1999.90;999.90;;;;;;;11.60;93.96;165493.53;5014055;28;20053;-67
2022/02/09 10:52:59;;;;;;;1999.90;999.90;;;;;;;11.62;93.52;165500.41;5017864;28;20045;-66
2022/02/09 10:55:34;;;;;;;1999.90;999.90;;;;;;;11.24;94.76;165398.47;5015685;28;20480;-67
2022/02/09 10:58:08;;;;;;;1999.90;999.90;;;;;;;11.10;95.70;165359.88;5021677;28;20134;-67
2022/02/09 11:00:35;;;;;;;1999.90;999.90;;;;;;;11.38;94.47;165434.28;5019795;28;20050;-68
2022/02/09 11:03:02;;;;;;;1999.90;999.90;;;;;;;10.79;95.16;165275.84;5018043;28;20053;-67
2022/02/09 11:05:29;;;;;;;1999.90;999.90;;;;;;;10.72;96.09;165257.97;5015301;28;20034;-67
2022/02/09 11:07:56;;;;;;;1999.90;999.90;;;;;;;11.32;95.17;165417.75;5021454;28;20145;-67
2022/02/09 11:10:24;;;;;;;1999.90;999.90;;;;;;;11.00;94.25;165333.72;5020939;28;20053;-66
2022/02/09 11:12:53;;;;;;;1999.90;999.90;;;;;;;11.17;94.25;165379.16;5021166;28;20066;-67
2022/02/09 11:15:21;;;;;;;1999.90;999.90;;;;;;;11.10;93.78;165359.88;5018346;28;20095;-66
2022/02/09 11:17:49;;;;;;;1999.90;999.90;;;;;;;11.52;93.07;165472.88;5016916;28;20119;-67
2022/02/09 11:20:26;;;;;;;1999.90;999.90;;;;;;;10.67;94.65;165244.16;5013252;28;20217;-67
2022/02/09 11:22:53;;;;;;;1999.90;999.90;;;;;;;10.15;96.82;165106.44;5020272;28;20133;-67
2022/02/09 11:25:31;;;;;;;1999.90;999.90;;;;;;;9.64;98.61;164968.75;5011240;28;20165;-67
2022/02/09 11:28:31;;;;;;;1999.90;999.90;;;;;;;9.74;98.05;164996.28;5020895;28;20125;-67
2022/02/09 11:31:13;;;;;;;1999.90;999.90;;;;;;;10.20;97.94;165118.81;5020665;28;20076;-67
2022/02/09 11:33:52;;;;;;;1999.90;999.90;;;;;;;10.50;95.57;165200.09;5015296;28;20081;-67
2022/02/09 11:36:29;;;;;;;1999.90;999.90;;;;;;;10.11;96.82;165094.00;5012450;28;20298;-67
2022/02/09 11:39:15;;;;;;;1999.90;999.90;;;;;;;10.36;96.09;165162.94;5016616;28;20403;-67
2022/02/09 11:42:09;;;;;;;1999.90;999.90;;;;;;;11.27;93.42;165406.72;5014224;28;20422;-67
2022/02/09 11:44:48;;;;;;;1999.90;999.90;;;;;;;11.76;91.95;165536.22;5024316;28;20139;-68
2022/02/09 12:09:41;;;;;;;1999.90;999.90;;;;;;;11.02;93.05;165339.22;5022937;28;20077;-68
2022/02/09 12:12:13;;;;;;;1999.90;999.90;;;;;;;11.06;91.86;165348.84;5014149;28;20052;-68
2022/02/09 12:14:58;;;;;;;1999.90;999.90;;;;;;;11.01;91.79;165335.09;5017910;28;20499;-68
2022/02/09 12:20:29;;;;;;;1999.90;999.90;;;;;;;11.46;90.95;165456.31;5016784;28;20081;-68
2022/02/09 12:25:44;;;;;;;1999.90;999.90;;;;;;;12.43;87.16;165716.91;5025191;28;20120;-66
2022/02/09 12:28:15;;;;;;;1999.90;999.90;;;;;;;12.60;85.06;165762.38;5028336;28;20144;-66
2022/02/09 12:30:42;;;;;;;1999.90;999.90;;;;;;;11.63;90.10;165503.19;5019784;28;20131;-66
2022/02/09 12:33:20;;;;;;;1999.90;999.90;;;;;;;11.76;89.21;165537.66;5022300;28;20042;-66
2022/02/09 12:35:47;;;;;;;1999.90;999.90;;;;;;;12.00;87.57;165599.69;5016494;28;20050;-67
2022/02/09 12:38:13;;;;;;;1999.90;999.90;;;;;;;11.20;89.94;165387.44;5012929;28;20057;-67
2022/02/09 12:40:40;;;;;;;1999.90;999.90;;;;;;;11.16;90.12;165376.41;5024163;28;20130;-67
2022/02/09 12:43:12;;;;;;;1999.90;999.90;;;;;;;10.98;90.65;165326.81;5021100;28;20096;-66
2022/02/09 12:45:45;;;;;;;1999.90;999.90;;;;;;;11.02;91.12;165339.22;5026865;28;20041;-66
2022/02/09 12:48:13;;;;;;;1999.90;999.90;;;;;;;10.49;92.81;165197.31;5027236;28;20132;-69
2022/02/09 12:50:42;;;;;;;1999.90;999.90;;;;;;;10.66;92.89;165241.41;5020466;28;20050;-67
2022/02/09 12:53:10;;;;;;;1999.90;999.90;;;;;;;10.74;92.24;165263.47;5024241;28;20064;-67
2022/02/09 12:55:39;;;;;;;1999.90;999.90;;;;;;;10.59;92.20;165222.16;5017063;28;20103;-67
2022/02/09 12:58:08;;;;;;;1999.90;999.90;;;;;;;10.62;91.26;165231.78;5018810;28;20059;-68
2022/02/09 13:00:40;;;;;;;1999.90;999.90;;;;;;;10.56;91.85;165215.25;5027262;28;20114;-67
2022/02/09 13:03:10;;;;;;;1999.90;999.90;;;;;;;10.52;92.34;165205.59;5024486;28;20452;-67
2022/02/09 13:05:48;;;;;;;1999.90;999.90;;;;;;;10.16;93.43;165109.16;5016438;28;20053;-67
2022/02/09 13:08:29;;;;;;;1999.90;999.90;;;;;;;10.23;93.97;165127.09;5017644;28;20507;-67
2022/02/09 13:11:20;;;;;;;1999.90;999.90;;;;;;;9.91;93.54;165040.34;5017306;28;20164;-68
2022/02/09 13:13:53;;;;;;;1999.90;999.90;;;;;;;9.55;95.42;164944.00;5015938;28;20053;-67
2022/02/09 14:52:00;;;;;;;1999.90;999.90;;;;;;;7.96;100.00;164518.88;5018869;28;20479;-69
2022/02/09 14:54:34;;;;;;;1999.90;999.90;;;;;;;7.98;100.00;164525.78;5018748;28;20140;-69
2022/02/09 14:57:14;;;;;;;1999.90;999.90;;;;;;;8.20;99.96;164583.50;5016763;28;20061;-68
2022/02/09 15:02:14;;;;;;;1999.90;999.90;;;;;;;8.00;99.99;164531.25;5015124;28;20073;-69
2022/02/09 15:10:15;;;;;;;1999.90;999.90;;;;;;;8.10;99.73;164558.75;5013611;28;20088;-68
2022/02/09 15:15:32;;;;;;;1999.90;999.90;;;;;;;7.99;99.59;164528.50;5016859;28;20069;-67
2022/02/09 15:18:29;;;;;;;1999.90;999.90;;;;;;;7.83;99.80;164484.50;5017260;28;20459;-69
2022/02/09 15:23:34;;;;;;;1999.90;999.90;;;;;;;7.54;100.00;164407.53;4995160;28;20073;-68
2022/02/09 15:26:04;;;;;;;1999.90;999.90;;;;;;;7.71;100.00;164454.28;5018485;28;20057;-69
2022/02/09 15:28:30;;;;;;;1999.90;999.90;;;;;;;7.81;100.00;164480.38;5019946;28;20192;-68
2022/02/09 15:31:20;;;;;;;1999.90;999.90;;;;;;;7.60;100.00;164424.03;5021862;28;20046;-68
2022/02/09 15:33:51;;;;;;;1999.90;999.90;;;;;;;7.86;100.00;164494.16;5020711;28;20167;-67
2022/02/09 15:36:25;;;;;;;1999.90;999.90;;;;;;;7.70;100.00;164451.53;5019694;28;20069;-67
2022/02/09 15:38:52;;;;;;;1999.90;999.90;;;;;;;7.68;100.00;164444.63;5019831;28;20160;-68
2022/02/09 15:41:55;;;;;;;1999.90;999.90;;;;;;;7.47;100.00;164388.28;5019668;28;20123;-68
2022/02/09 16:06:40;;;;;;;1999.90;999.90;;;;;;;7.35;100.00;164356.69;5022718;28;20478;-68
2022/02/09 16:09:13;;;;;;;1999.90;999.90;;;;;;;7.88;100.00;164499.63;5020237;28;20547;-68
2022/02/09 16:22:31;;;;;;;1999.90;999.90;;;;;;;7.29;100.00;164341.56;5013755;28;20053;-68
2022/02/09 16:46:38;;;;;;;1999.90;999.90;;;;;;;7.34;100.00;164355.31;5016261;28;20381;-67
2022/02/09 16:49:16;;;;;;;1999.90;999.90;;;;;;;7.07;100.00;164282.47;5013110;28;20081;-67
2022/02/09 16:51:49;;;;;;;1999.90;999.90;;;;;;;7.34;100.00;164353.91;5022265;28;20085;-67
2022/02/09 16:54:35;;;;;;;1999.90;999.90;;;;;;;7.16;100.00;164305.81;5015756;28;20179;-68
2022/02/09 16:57:19;;;;;;;1999.90;999.90;;;;;;;7.33;100.00;164352.56;5020578;28;20065;-68
2022/02/09 17:11:17;;;;;;;1999.90;999.90;;;;;;;7.19;97.89;164315.47;5020998;28;20426;-69
2022/02/09 17:19:13;;;;;;;1999.90;999.90;;;;;;;7.32;98.05;164348.44;5018578;28;20109;-69
2022/02/09 17:21:40;;;;;;;1999.90;999.90;;;;;;;7.49;96.59;164395.19;5021001;28;20085;-67
2022/02/09 17:24:06;;;;;;;1999.90;999.90;;;;;;;7.16;97.88;164305.81;5023245;28;20081;-68
2022/02/09 17:26:33;;;;;;;1999.90;999.90;;;;;;;7.14;97.79;164301.72;5014998;28;20080;-69
2022/02/09 17:29:02;;;;;;;1999.90;999.90;;;;;;;7.21;97.00;164319.59;5015811;28;20103;-69
2022/02/09 17:31:51;;;;;;;1999.90;999.90;;;;;;;7.03;95.99;164272.88;5027674;28;20118;-68
2022/02/09 17:37:33;;;;;;;1999.90;999.90;;;;;;;6.86;95.87;164227.53;5022428;28;20047;-68
2022/02/09 17:53:48;;;;;;;1999.90;999.90;;;;;;;7.09;94.40;164288.00;5013545;28;20131;-68
2022/02/09 17:56:19;;;;;;;1999.90;999.90;;;;;;;7.19;93.69;164315.47;5020985;28;20509;-68
2022/02/09 17:58:48;;;;;;;1999.90;999.90;;;;;;;7.18;93.64;164311.34;5017307;28;20104;-67
2022/02/09 18:01:18;;;;;;;1999.90;999.90;;;;;;;7.35;93.55;164358.09;5021128;28;20081;-67
2022/02/09 18:03:46;;;;;;;1999.90;999.90;;;;;;;7.21;92.98;164319.59;5012296;28;20082;-67
2022/02/09 18:06:18;;;;;;;1999.90;999.90;;;;;;;7.17;93.29;164309.94;5021541;28;20069;-67
2022/02/09 18:08:55;;;;;;;1999.90;999.90;;;;;;;6.97;93.91;164255.03;5013984;28;20140;-67
2022/02/09 18:30:21;;;;;;;1999.90;999.90;;;;;;;7.08;93.16;164283.88;5021508;28;20073;-68
2022/02/09 18:44:02;;;;;;;1999.90;999.90;;;;;;;7.27;92.23;164334.72;5014318;28;20424;-67
2022/02/09 18:57:22;;;;;;;1999.90;999.90;;;;;;;6.80;93.75;164209.66;5021876;28;20382;-69
2022/02/09 19:02:43;;;;;;;1999.90;999.90;;;;;;;6.91;92.70;164239.91;5014069;28;20526;-69
2022/02/09 19:08:12;;;;;;;1999.90;999.90;;;;;;;6.95;93.55;164250.91;5028781;28;20144;-68
2022/02/09 19:27:36;;;;;;;1999.90;999.90;;;;;;;7.46;91.15;164386.94;5014667;28;20172;-68
2022/02/09 19:30:09;;;;;;;;;;;;;;;6.85;93.20;164223.44;5021101;28;20042;-68
2022/02/09 19:45:55;;;;;;;1999.90;999.90;;;;;;;6.75;92.94;164195.94;5028413;28;20077;-68
2022/02/09 19:48:32;;;;;;;1999.90;999.90;;;;;;;6.72;93.77;164187.72;5023930;28;20132;-68
2022/02/09 19:53:45;;;;;;;1999.90;999.90;;;;;;;6.52;94.25;164135.50;5017296;28;20385;-68
2022/02/09 19:56:20;;;;;;;1999.90;999.90;;;;;;;6.70;94.20;164184.94;5022281;28;20423;-68
2022/02/09 20:01:18;;;;;;;1999.90;999.90;;;;;;;6.79;93.58;164208.31;5024001;28;20061;-68
2022/02/09 20:03:45;;;;;;;1999.90;999.90;;;;;;;6.87;92.76;164230.25;5025297;28;20112;-68
2022/02/09 20:06:13;;;;;;;1999.90;999.90;;;;;;;6.90;93.64;164237.16;4997482;28;20204;-67
2022/02/09 20:08:57;;;;;;;1999.90;999.90;;;;;;;6.99;92.90;164261.88;5023751;28;20056;-68
2022/02/09 20:11:24;;;;;;;1999.90;999.90;;;;;;;6.81;93.53;164213.78;5020104;28;20053;-68
2022/02/09 20:13:53;;;;;;;1999.90;999.90;;;;;;;6.95;92.81;164250.91;5026337;28;20084;-69
2022/02/09 20:16:20;;;;;;;1999.90;999.90;;;;;;;6.89;92.79;164234.38;5027572;28;20123;-68
2022/02/09 20:18:47;;;;;;;1999.90;999.90;;;;;;;6.97;92.94;164256.38;5016572;28;20223;-68
2022/02/09 20:21:13;;;;;;;1999.90;999.90;;;;;;;6.85;92.81;164223.44;5023835;28;20115;-68
2022/02/09 20:23:40;;;;;;;1999.90;999.90;;;;;;;6.93;92.96;164244.03;5022209;28;20057;-68
2022/02/09 20:26:09;;;;;;;1999.90;999.90;;;;;;;6.95;93.05;164249.50;5019667;28;20050;-67
2022/02/09 20:28:39;;;;;;;1999.90;999.90;;;;;;;7.37;90.91;164362.22;5019383;28;20393;-67
2022/02/09 20:31:10;;;;;;;1999.90;999.90;;;;;;;7.00;92.19;164264.63;5027089;28;20123;-67
2022/02/09 20:33:43;;;;;;;1999.90;999.90;;;;;;;7.10;91.32;164289.34;5014289;28;20085;-68
2022/02/09 20:36:12;;;;;;;1999.90;999.90;;;;;;;7.29;90.12;164341.56;5013335;28;20114;-67
2022/02/09 20:38:40;;;;;;;1999.90;999.90;;;;;;;7.71;88.48;164454.28;5021550;28;20049;-68
2022/02/09 20:41:09;;;;;;;1999.90;999.90;;;;;;;7.63;88.19;164432.28;5028469;28;20060;-68
2022/02/09 20:43:55;;;;;;;1999.90;999.90;;;;;;;7.44;88.18;164381.41;5020763;28;20076;-68
2022/02/09 20:46:21;;;;;;;1999.90;999.90;;;;;;;7.13;90.29;164297.59;5018052;28;20132;-69
2022/02/09 20:48:48;;;;;;;1999.90;999.90;;;;;;;7.32;90.08;164349.78;5018582;28;20096;-69
2022/02/09 20:51:14;;;;;;;1999.90;999.90;;;;;;;7.36;90.37;164359.44;5022199;28;20084;-69
2022/02/09 20:53:41;;;;;;;1999.90;999.90;;;;;;;7.23;90.37;164326.47;5024070;28;20500;-69
2022/02/09 20:56:07;;;;;;;1999.90;999.90;;;;;;;7.25;90.69;164329.19;5015476;28;20123;-69
2022/02/09 20:58:39;;;;;;;1999.90;999.90;;;;;;;7.08;91.49;164283.88;5022765;28;20331;-69
2022/02/09 21:01:13;;;;;;;1999.90;999.90;;;;;;;7.04;91.92;164275.63;5019273;28;20089;-68
2022/02/09 21:23:11;;;;;;;1999.90;999.90;;;;;;;7.22;90.92;164323.72;5018130;28;20485;-66
2022/02/09 21:43:35;;;;;;;1999.90;999.90;;;;;;;7.18;90.64;164311.34;5021123;28;20385;-68
2022/02/09 21:51:55;;;;;;;1999.90;999.90;;;;;;;7.60;89.54;164422.66;5015540;28;20076;-68
2022/02/09 21:53:37;;;;;;;1999.90;999.90;;;;;;;7.59;89.16;164421.25;5023219;28;20076;-67
2022/02/09 21:58:39;;;;;;;1999.90;999.90;;;;;;;7.56;88.84;164413.03;5018910;28;20082;-68
2022/02/09 22:01:31;;;;;;;1999.90;999.90;;;;;;;7.42;89.79;164374.56;5020849;28;20045;-67
2022/02/09 22:28:18;;;;;;;1999.90;999.90;;;;;;;7.10;90.81;164289.34;5014775;28;20497;-68
2022/02/09 22:31:19;;;;;;;1999.90;999.90;;;;;;;7.12;90.88;164294.88;5017688;28;20053;-68
2022/02/09 22:50:05;;;;;;;1999.90;999.90;;;;;;;7.13;90.99;164299.00;5023272;28;20460;-67
2022/02/09 22:55:21;;;;;;;1999.90;999.90;;;;;;;7.21;90.35;164320.94;5016361;28;20103;-68
2022/02/09 22:58:02;;;;;;;1999.90;999.90;;;;;;;7.15;90.42;164303.13;5011751;28;20038;-67
2022/02/09 23:03:39;;;;;;;1999.90;999.90;;;;;;;7.34;90.38;164353.91;5022031;28;20344;-68
2022/02/09 23:14:22;;;;;;;1999.90;999.90;;;;;;;7.56;88.60;164414.44;5019602;28;20152;-68
2022/02/09 23:27:50;;;;;;;1999.90;999.90;;;;;;;6.85;91.32;164223.44;5014386;28;20045;-68
2022/02/09 23:55:14;;;;;;;1999.90;999.90;;;;;;;6.92;90.80;164242.63;5029118;28;20058;-69
